createdAt,value
2018-02-16T00:01:27.029Z,41.57
2018-02-16T00:03:55.361Z,37.83
2018-02-16T00:06:23.754Z,42.63
2018-02-16T00:08:52.136Z,40.50
2018-02-16T00:11:20.689Z,40.07
2018-02-16T00:13:49.004Z,40.50
2018-02-16T00:16:17.336Z,42.60
2018-02-16T00:18:45.637Z,40.83
2018-02-16T00:21:14.018Z,39.40
2018-02-16T00:23:42.326Z,41.27
2018-02-16T00:26:10.679Z,44.90
2018-02-16T00:28:39.063Z,36.07
2018-02-16T00:31:07.528Z,43.97
2018-02-16T00:33:35.836Z,43.30
2018-02-16T00:36:04.302Z,42.40
2018-02-16T00:38:32.584Z,42.37
2018-02-16T00:41:00.903Z,43.83
2018-02-16T00:43:29.216Z,46.00
2018-02-16T00:45:57.553Z,41.67
2018-02-16T00:48:25.950Z,42.97
2018-02-16T00:50:54.863Z,43.27
2018-02-16T00:53:23.332Z,42.73
2018-02-16T00:55:51.641Z,46.80
2018-02-16T00:58:19.936Z,47.47
2018-02-16T01:00:48.273Z,47.50
2018-02-16T01:03:16.631Z,47.73
2018-02-16T01:05:45.132Z,41.47
2018-02-16T01:08:13.409Z,44.73
2018-02-16T01:10:41.728Z,46.50
2018-02-16T01:13:10.012Z,48.17
2018-02-16T01:15:38.448Z,47.70
2018-02-16T01:18:06.800Z,48.37
2018-02-16T01:20:35.206Z,43.33
2018-02-16T01:23:03.640Z,47.07
2018-02-16T01:25:31.945Z,50.47
2018-02-16T01:28:00.232Z,47.13
2018-02-16T01:30:28.568Z,52.87
2018-02-16T01:32:56.990Z,44.90
2018-02-16T01:35:25.421Z,50.77
2018-02-16T01:37:54.016Z,52.40
2018-02-16T01:40:22.332Z,53.30
2018-02-16T01:42:50.630Z,55.87
2018-02-16T01:45:19.085Z,55.63
2018-02-16T01:47:47.550Z,51.60
2018-02-16T01:50:15.893Z,51.97
2018-02-16T01:52:44.216Z,56.20
2018-02-16T01:55:12.526Z,54.80
2018-02-16T01:57:40.812Z,55.37
2018-02-16T02:00:09.133Z,56.80
2018-02-16T02:02:37.547Z,54.90
2018-02-16T02:05:05.921Z,51.90
2018-02-16T02:07:34.242Z,62.17
2018-02-16T02:10:02.533Z,55.27
2018-02-16T02:12:30.877Z,53.10
2018-02-16T02:14:59.192Z,60.67
2018-02-16T02:17:27.808Z,54.03
2018-02-16T02:19:56.245Z,54.63
2018-02-16T02:22:24.627Z,54.53
2018-02-16T02:24:52.982Z,53.43
2018-02-16T02:27:21.424Z,57.70
2018-02-16T02:29:49.697Z,61.30
2018-02-16T02:32:18.174Z,57.40
2018-02-16T02:34:46.489Z,59.43
2018-02-16T02:37:14.855Z,74.87
2018-02-16T02:39:43.224Z,59.70
2018-02-16T02:42:11.588Z,59.20
2018-02-16T02:44:39.892Z,63.23
2018-02-16T02:47:08.237Z,63.70
2018-02-16T02:49:36.535Z,61.80
2018-02-16T02:52:04.947Z,61.33
2018-02-16T02:54:33.375Z,60.00
2018-02-16T02:57:01.814Z,65.73
2018-02-16T02:59:30.513Z,73.43
2018-02-16T03:01:58.849Z,63.73
2018-02-16T03:04:27.120Z,64.60
2018-02-16T03:06:55.477Z,62.73
2018-02-16T03:09:23.841Z,70.90
2018-02-16T03:11:52.324Z,61.03
2018-02-16T03:14:20.595Z,63.93
2018-02-16T03:16:48.927Z,62.27
2018-02-16T03:19:17.221Z,67.50
2018-02-16T03:21:45.673Z,66.60
2018-02-16T03:24:13.993Z,70.67
2018-02-16T03:26:42.512Z,64.80
2018-02-16T03:29:10.820Z,72.43
2018-02-16T03:31:39.161Z,66.77
2018-02-16T03:34:07.457Z,71.67
2018-02-16T03:36:36.642Z,76.90
2018-02-16T03:39:05.767Z,72.83
2018-02-16T03:41:34.155Z,66.90
2018-02-16T03:44:02.482Z,67.60
2018-02-16T03:46:31.448Z,70.90
2018-02-16T03:48:59.840Z,69.33
2018-02-16T03:51:28.222Z,74.43
2018-02-16T03:53:56.715Z,69.07
2018-02-16T03:56:25.198Z,74.90
2018-02-16T03:58:53.508Z,74.53
2018-02-16T04:01:21.863Z,72.73
2018-02-16T04:03:50.284Z,66.97
2018-02-16T04:06:18.605Z,76.53
2018-02-16T04:08:47.248Z,68.00
2018-02-16T04:11:15.606Z,78.87
2018-02-16T04:13:43.932Z,82.43
2018-02-16T04:16:12.337Z,79.20
2018-02-16T04:18:40.628Z,79.07
2018-02-16T04:21:08.973Z,85.20
2018-02-16T04:23:37.362Z,82.40
2018-02-16T04:26:05.824Z,78.63
2018-02-16T04:31:08.633Z,89.53
2018-02-16T04:33:36.928Z,85.77
2018-02-16T04:36:05.298Z,80.20
2018-02-16T04:38:33.593Z,95.50
2018-02-16T04:41:01.971Z,81.13
2018-02-16T04:43:30.280Z,85.27
2018-02-16T04:45:58.635Z,83.43
2018-02-16T04:48:27.044Z,81.57
2018-02-16T04:50:55.352Z,91.73
2018-02-16T04:53:23.837Z,86.90
2018-02-16T04:55:52.181Z,81.70
2018-02-16T04:58:20.509Z,92.63
2018-02-16T05:03:44.907Z,86.40
2018-02-16T05:06:13.798Z,96.47
2018-02-16T05:08:42.555Z,86.03
2018-02-16T05:11:11.238Z,95.13
2018-02-16T05:13:39.752Z,84.43
2018-02-16T05:16:08.405Z,86.57
2018-02-16T05:18:37.212Z,84.03
2018-02-16T05:21:05.713Z,94.07
2018-02-16T05:23:34.147Z,87.43
2018-02-16T05:26:02.710Z,87.47
2018-02-16T05:28:31.427Z,76.03
2018-02-16T05:31:00.278Z,88.53
2018-02-16T05:33:28.947Z,87.27
2018-02-16T05:35:57.439Z,81.53
2018-02-16T05:38:25.932Z,81.47
2018-02-16T05:40:54.775Z,85.73
2018-02-16T05:43:24.013Z,81.90
2018-02-16T05:45:52.579Z,79.23
2018-02-16T05:48:21.934Z,82.13
2018-02-16T05:50:50.594Z,80.23
2018-02-16T05:53:19.141Z,70.43
2018-02-16T05:55:47.987Z,79.77
2018-02-16T05:58:16.511Z,70.37
2018-02-16T06:00:45.051Z,67.53
2018-02-16T06:03:13.562Z,81.70
2018-02-16T06:05:42.135Z,79.07
2018-02-16T06:08:10.591Z,75.73
2018-02-16T06:10:39.041Z,70.50
2018-02-16T06:13:07.650Z,70.07
2018-02-16T06:15:37.063Z,78.20
2018-02-16T06:18:05.631Z,73.03
2018-02-16T06:20:34.303Z,78.73
2018-02-16T06:23:03.281Z,66.53
2018-02-16T06:25:32.094Z,64.83
2018-02-16T06:28:01.439Z,67.90
2018-02-16T06:30:30.626Z,56.20
2018-02-16T06:32:59.430Z,68.00
2018-02-16T06:35:28.354Z,57.87
2018-02-16T06:37:57.826Z,65.90
2018-02-16T06:40:26.328Z,64.57
2018-02-16T06:42:55.006Z,81.10
2018-02-16T06:45:23.766Z,112.20
2018-02-16T06:47:53.247Z,123.03
2018-02-16T06:50:22.799Z,85.27
2018-02-16T06:52:51.391Z,104.23
2018-02-16T06:55:19.964Z,80.50
2018-02-16T06:57:48.665Z,67.13
2018-02-16T07:00:17.312Z,78.27
2018-02-16T07:02:45.755Z,64.03
2018-02-16T07:05:14.302Z,66.53
2018-02-16T07:07:43.123Z,55.87
2018-02-16T07:10:13.507Z,61.77
2018-02-16T07:12:42.298Z,61.50
2018-02-16T07:15:10.959Z,45.20
2018-02-16T07:17:39.868Z,51.83
2018-02-16T07:20:09.354Z,50.40
2018-02-16T07:22:38.190Z,46.10
2018-02-16T07:25:06.717Z,47.60
2018-02-16T07:27:36.287Z,41.77
2018-02-16T07:30:05.341Z,45.30
2018-02-16T07:32:34.169Z,48.50
2018-02-16T07:35:03.763Z,49.47
2018-02-16T07:37:32.425Z,41.03
2018-02-16T07:40:00.851Z,45.27
2018-02-16T07:42:29.756Z,42.97
2018-02-16T07:44:58.246Z,44.40
2018-02-16T07:47:27.939Z,34.90
2018-02-16T07:49:56.899Z,38.00
2018-02-16T07:52:25.735Z,42.00
2018-02-16T07:54:54.383Z,39.80
2018-02-16T07:57:24.980Z,38.83
2018-02-16T07:59:54.828Z,37.63
2018-02-16T08:02:23.936Z,37.77
2018-02-16T08:04:52.840Z,38.50
2018-02-16T08:07:21.968Z,30.70
2018-02-16T08:09:50.710Z,30.00
2018-02-16T08:12:19.370Z,42.13
2018-02-16T08:14:47.990Z,31.87
2018-02-16T08:17:16.748Z,37.17
2018-02-16T08:19:46.369Z,30.20
2018-02-16T08:22:15.763Z,36.43
2018-02-16T08:24:46.247Z,32.50
2018-02-16T08:27:16.158Z,29.03
2018-02-16T08:29:46.720Z,31.63
2018-02-16T08:32:17.530Z,30.60
2018-02-16T08:34:47.038Z,34.97
2018-02-16T08:37:17.661Z,27.77
2018-02-16T08:39:48.895Z,29.73
2018-02-16T08:42:20.320Z,22.17
2018-02-16T08:44:51.094Z,25.60
2018-02-16T08:47:19.956Z,28.43
2018-02-16T08:49:48.954Z,18.80
2018-02-16T08:52:21.151Z,21.10
2018-02-16T08:54:49.802Z,25.93
2018-02-16T08:57:19.103Z,19.87
2018-02-16T08:59:52.117Z,28.20
2018-02-16T09:02:21.043Z,24.80
2018-02-16T09:04:50.711Z,20.60
2018-02-16T09:07:20.530Z,26.50
2018-02-16T09:09:49.150Z,20.40
2018-02-16T09:12:17.838Z,19.10
2018-02-16T09:14:46.732Z,19.80
2018-02-16T09:17:15.733Z,21.83
2018-02-16T09:19:44.727Z,19.50
2018-02-16T09:22:13.961Z,20.20
2018-02-16T09:24:42.835Z,23.27
2018-02-16T09:27:11.704Z,21.30
2018-02-16T09:29:40.200Z,27.50
2018-02-16T09:32:09.950Z,23.67
2018-02-16T09:34:40.098Z,21.00
2018-02-16T09:37:13.615Z,20.93
2018-02-16T09:39:44.933Z,24.50
2018-02-16T09:44:51.266Z,21.17
2018-02-16T09:47:20.162Z,23.70
2018-02-16T09:49:48.847Z,19.50
2018-02-16T09:52:19.022Z,22.17
2018-02-16T09:54:47.597Z,31.73
2018-02-16T09:57:16.326Z,23.57
2018-02-16T09:59:45.988Z,25.20
2018-02-16T10:02:17.103Z,18.47
2018-02-16T10:04:45.668Z,23.43
2018-02-16T10:07:15.096Z,28.73
2018-02-16T10:09:44.362Z,28.63
2018-02-16T10:12:15.647Z,20.20
2018-02-16T10:14:45.075Z,22.03
2018-02-16T10:17:14.847Z,25.57
2018-02-16T10:19:43.616Z,30.23
2018-02-16T10:22:13.220Z,29.50
2018-02-16T10:24:42.134Z,20.90
2018-02-16T10:27:10.888Z,25.43
2018-02-16T10:29:40.079Z,22.17
2018-02-16T10:32:09.509Z,31.43
2018-02-16T10:34:41.479Z,22.60
2018-02-16T10:37:10.940Z,30.57
2018-02-16T10:39:40.724Z,32.80
2018-02-16T10:42:09.602Z,27.33
2018-02-16T10:44:38.227Z,28.83
2018-02-16T10:47:08.481Z,36.33
2018-02-16T10:49:38.600Z,38.40
2018-02-16T10:53:06.721Z,21.80
2018-02-16T10:55:35.681Z,38.53
2018-02-16T10:58:04.508Z,34.27
2018-02-16T11:00:38.153Z,32.00
2018-02-16T11:03:12.064Z,37.03
2018-02-16T11:05:45.475Z,40.83
2018-02-16T11:08:18.379Z,33.10
2018-02-16T11:10:47.343Z,34.80
2018-02-16T11:13:16.215Z,35.60
2018-02-16T11:15:45.132Z,43.90
2018-02-16T11:18:15.624Z,38.80
2018-02-16T11:20:44.604Z,38.77
2018-02-16T11:23:13.315Z,30.93
2018-02-16T11:25:42.422Z,42.00
2018-02-16T11:28:11.037Z,39.90
2018-02-16T11:30:39.921Z,34.83
2018-02-16T11:33:08.755Z,33.93
2018-02-16T11:35:37.234Z,32.37
2018-02-16T11:38:07.478Z,35.90
2018-02-16T11:40:36.263Z,37.30
2018-02-16T11:43:05.462Z,42.27
2018-02-16T11:45:34.520Z,34.90
2018-02-16T11:48:03.896Z,48.43
2018-02-16T11:50:32.965Z,38.93
2018-02-16T11:53:02.202Z,40.10
2018-02-16T11:55:34.876Z,36.60
2018-02-16T11:58:03.571Z,39.23
2018-02-16T12:00:32.536Z,33.40
2018-02-16T12:03:01.715Z,29.93
2018-02-16T12:05:30.301Z,31.80
2018-02-16T12:07:59.499Z,33.17
2018-02-16T12:10:28.494Z,31.37
2018-02-16T12:12:57.407Z,36.10
2018-02-16T12:15:26.504Z,36.13
2018-02-16T12:17:55.600Z,39.20
2018-02-16T12:20:24.679Z,41.23
2018-02-16T12:22:53.373Z,34.73
2018-02-16T12:25:22.489Z,31.80
2018-02-16T12:27:51.360Z,29.70
2018-02-16T12:30:22.919Z,34.50
2018-02-16T12:32:52.014Z,30.57
2018-02-16T12:35:21.731Z,33.90
2018-02-16T12:37:50.714Z,29.07
2018-02-16T12:40:21.663Z,34.90
2018-02-16T12:42:50.377Z,43.83
2018-02-16T12:45:19.051Z,36.10
2018-02-16T12:47:48.892Z,34.90
2018-02-16T12:50:18.619Z,42.93
2018-02-16T12:52:48.127Z,40.37
2018-02-16T12:55:18.299Z,33.00
2018-02-16T12:57:47.163Z,49.27
2018-02-16T13:00:16.819Z,48.37
2018-02-16T13:02:45.798Z,33.40
2018-02-16T13:05:14.312Z,40.27
2018-02-16T13:07:43.511Z,28.90
2018-02-16T13:10:13.315Z,32.33
2018-02-16T13:12:42.246Z,26.80
2018-02-16T13:15:10.988Z,29.07
2018-02-16T13:17:39.636Z,44.47
2018-02-16T13:20:08.979Z,24.73
2018-02-16T13:22:39.703Z,30.47
2018-02-16T13:25:09.771Z,36.00
2018-02-16T13:27:41.558Z,30.67
2018-02-16T13:30:18.932Z,25.93
2018-02-16T13:32:48.689Z,25.10
2018-02-16T13:35:18.307Z,22.17
2018-02-16T13:37:47.023Z,23.33
2018-02-16T13:40:17.003Z,24.70
2018-02-16T13:42:48.139Z,25.27
2018-02-16T13:45:17.299Z,27.87
2018-02-16T13:47:48.232Z,22.00
2018-02-16T13:50:18.574Z,25.77
2018-02-16T13:52:51.964Z,23.63
2018-02-16T13:55:24.650Z,20.90
2018-02-16T13:57:54.004Z,28.43
2018-02-16T14:00:24.067Z,20.27
2018-02-16T14:02:56.994Z,21.87
2018-02-16T14:05:27.050Z,18.03
2018-02-16T14:07:57.737Z,19.43
2018-02-16T14:10:26.741Z,19.60
2018-02-16T14:12:56.389Z,14.97
2018-02-16T14:15:28.029Z,21.43
2018-02-16T14:17:57.325Z,24.10
2018-02-16T14:20:27.584Z,17.83
2018-02-16T14:22:58.852Z,19.33
2018-02-16T14:25:29.904Z,23.77
2018-02-16T14:28:01.036Z,17.17
2018-02-16T14:30:32.844Z,19.47
2018-02-16T14:33:02.623Z,17.00
2018-02-16T14:35:32.889Z,18.40
2018-02-16T14:38:09.352Z,21.03
2018-02-16T14:40:38.777Z,19.50
2018-02-16T14:43:07.514Z,22.67
2018-02-16T14:45:37.104Z,19.00
2018-02-16T14:48:07.061Z,18.47
2018-02-16T14:50:39.439Z,24.73
2018-02-16T14:53:09.318Z,29.23
2018-02-16T14:55:39.369Z,16.57
2018-02-16T14:58:08.753Z,16.77
2018-02-16T15:00:43.150Z,19.77
2018-02-16T15:03:13.786Z,28.13
2018-02-16T15:05:43.728Z,18.17
2018-02-16T15:08:12.847Z,16.37
2018-02-16T15:10:44.268Z,22.60
2018-02-16T15:13:14.086Z,21.43
2018-02-16T15:15:43.281Z,23.00
2018-02-16T15:18:14.537Z,20.63
2018-02-16T15:20:44.757Z,19.00
2018-02-16T15:23:15.673Z,20.70
2018-02-16T15:25:46.785Z,24.17
2018-02-16T15:28:17.540Z,26.97
2018-02-16T15:30:46.899Z,23.80
2018-02-16T15:33:15.548Z,27.33
2018-02-16T15:35:45.015Z,25.90
2018-02-16T15:38:15.477Z,28.40
2018-02-16T15:40:44.312Z,23.23
2018-02-16T15:43:13.800Z,29.20
2018-02-16T15:45:42.862Z,27.07
2018-02-16T15:48:13.444Z,22.67
2018-02-16T15:50:43.910Z,25.23
2018-02-16T15:53:12.767Z,27.10
2018-02-16T15:55:41.278Z,20.20
2018-02-16T15:58:10.730Z,24.13
2018-02-16T16:00:40.683Z,27.23
2018-02-16T16:03:13.686Z,22.13
2018-02-16T16:05:44.329Z,26.53
2018-02-16T16:08:14.741Z,25.53
2018-02-16T16:10:45.139Z,22.20
2018-02-16T16:13:16.314Z,33.33
2018-02-16T16:15:48.368Z,23.13
2018-02-16T16:18:18.455Z,21.43
2018-02-16T16:20:48.033Z,20.90
2018-02-16T16:23:17.507Z,24.43
2018-02-16T16:25:48.771Z,29.73
2018-02-16T16:28:23.113Z,28.73
2018-02-16T16:30:55.337Z,28.10
2018-02-16T16:33:28.127Z,20.77
2018-02-16T16:35:57.983Z,23.47
2018-02-16T16:38:28.161Z,29.50
2018-02-16T16:40:58.694Z,31.90
2018-02-16T16:43:29.290Z,27.90
2018-02-16T16:46:00.505Z,28.37
2018-02-16T16:48:29.963Z,25.67
2018-02-16T16:51:00.351Z,29.50
2018-02-16T16:53:30.402Z,26.33
2018-02-16T16:56:00.484Z,31.90
2018-02-16T16:58:32.417Z,23.47
2018-02-16T17:01:01.798Z,30.17
2018-02-16T17:03:30.415Z,27.10
2018-02-16T17:05:59.743Z,27.80
2018-02-16T17:08:29.267Z,20.50
2018-02-16T17:10:59.608Z,29.60
2018-02-16T17:13:28.540Z,21.60
2018-02-16T17:15:57.194Z,27.57
2018-02-16T17:18:26.818Z,24.70
2018-02-16T17:20:55.967Z,36.90
2018-02-16T17:23:24.904Z,23.83
2018-02-16T17:25:55.356Z,34.00
2018-02-16T17:28:25.333Z,23.60
2018-02-16T17:30:58.315Z,25.00
2018-02-16T17:33:27.548Z,23.77
2018-02-16T17:35:56.265Z,29.53
2018-02-16T17:38:25.667Z,26.67
2018-02-16T17:40:54.375Z,21.07
2018-02-16T17:43:23.439Z,26.13
2018-02-16T17:45:52.765Z,26.00
2018-02-16T17:48:21.534Z,27.37
2018-02-16T17:50:50.585Z,29.07
2018-02-16T17:53:20.319Z,31.83
2018-02-16T17:55:50.245Z,36.40
2018-02-16T17:58:22.457Z,20.07
2018-02-16T18:00:52.600Z,26.33
2018-02-16T18:03:23.324Z,26.03
2018-02-16T18:05:55.757Z,31.50
2018-02-16T18:08:24.424Z,23.23
2018-02-16T18:10:54.298Z,30.90
2018-02-16T18:13:24.819Z,30.93
2018-02-16T18:15:54.116Z,26.30
2018-02-16T18:18:23.404Z,28.13
2018-02-16T18:20:54.455Z,34.10
2018-02-16T18:23:26.895Z,32.37
2018-02-16T18:25:56.800Z,35.90
2018-02-16T18:28:25.248Z,32.80
2018-02-16T18:30:54.229Z,42.07
2018-02-16T18:33:23.702Z,34.30
2018-02-16T18:35:53.447Z,30.67
2018-02-16T18:38:23.313Z,29.47
2018-02-16T18:40:53.847Z,33.20
2018-02-16T18:43:23.880Z,24.07
2018-02-16T18:45:53.471Z,33.47
2018-02-16T18:48:22.531Z,26.80
2018-02-16T18:50:51.928Z,29.47
2018-02-16T18:53:21.828Z,32.00
2018-02-16T18:55:52.763Z,28.13
2018-02-16T18:58:24.844Z,34.37
2018-02-16T19:00:57.266Z,33.13
2018-02-16T19:03:27.238Z,25.10
2018-02-16T19:05:56.326Z,33.17
2018-02-16T19:08:28.239Z,30.87
2018-02-16T19:11:00.342Z,42.07
2018-02-16T19:13:32.532Z,40.57
2018-02-16T19:16:02.223Z,31.87
2018-02-16T19:18:31.889Z,32.77
2018-02-16T19:21:02.448Z,48.73
2018-02-16T19:23:31.898Z,32.50
2018-02-16T19:26:01.987Z,35.57
2018-02-16T19:28:31.286Z,29.43
2018-02-16T19:31:00.224Z,32.27
2018-02-16T19:33:29.549Z,35.30
2018-02-16T19:35:58.903Z,35.70
2018-02-16T19:38:29.374Z,38.40
2018-02-16T19:40:59.723Z,44.83
2018-02-16T19:43:30.700Z,49.97
2018-02-16T19:46:00.334Z,40.77
2018-02-16T19:48:30.364Z,34.30
2018-02-16T19:51:02.120Z,32.47
2018-02-16T19:53:30.947Z,34.17
2018-02-16T19:56:00.845Z,35.47
2018-02-16T19:58:32.971Z,40.70
2018-02-16T20:01:02.801Z,35.03
2018-02-16T20:03:31.742Z,34.80
2018-02-16T20:06:01.908Z,39.80
2018-02-16T20:08:32.371Z,40.10
2018-02-16T20:11:07.029Z,40.10
2018-02-16T20:13:57.814Z,44.37
2018-02-16T20:16:35.293Z,39.83
2018-02-16T20:19:04.503Z,46.40
2018-02-16T20:21:50.516Z,42.73
2018-02-16T20:24:26.029Z,43.00
